KRKP/RKP METAR and TAF weather

Enter ICAO airport designator
Station Type Date Time Source
KRKP METAR 2019/06/16 20:53 UTC NOAA

KRKP 162053Z AUTO 15014G22KT 8SM -RA FEW022 31/24 A2982 RMK AO2 SLP098 P0000 60000 T03110244 56016


Station Type Date Time Source
KRKP Decoded METAR 2019/06/16 20:53 UTC NOAA

ROCKPORT ARANSAS COUNTY AIRPORT , TX, United States (KRKP) 28-05N 97-03W 6M
Jun 16, 2019 - 04:53 PM EDT / 2019.06.16 2053 UTC
Wind: from the SSE (150 degrees) at 16 MPH (14 KT) gusting to 25 MPH (22 KT):0
Visibility: 8 mile(s):0
Sky conditions: mostly clear
Weather: light rain
Precipitation last hour: A trace
Temperature: 88.0 F (31.1 C)
Heat index: 98.6 F (37.0 C):1
Dew Point: 75.9 F (24.4 C)
Relative Humidity: 67%
Pressure (altimeter): 29.82 in. Hg (1009 hPa)
Pressure tendency: 0.05 inches (1.6 hPa) lower than three hours ago
ob: KRKP 162053Z AUTO 15014G22KT 8SM -RA FEW022 31/24 A2982 RMK AO2 SLP098 P0000 60000 T03110244 56016
cycle: 21

Station Type Date Time Source
KRKP TAF UTC NOAA

Error!

Example: see airport list